Terminal Aerodrome Forecast
Issued by NWS Nashville, TN

Home | Current Version | Previous Version | Text Only | Print | Product List | Glossary On
Versions: 1 2 3 4 5 6 7 8 9 10 11 12 13 14 15 16 17 18 19
000
FTUS44 KOHX 251133
TAFCSV
TAF
KCSV 251133Z 2512/2612 25004KT P6SM SCT035 SCT100
     FM251900 27004KT P6SM VCTS BKN040CB BKN250
     FM260000 23002KT P6SM BKN250
     FM260400 VRB03KT 4SM BR SCT100
     FM260800 VRB03KT 2SM BR SCT100=

USA.gov is the U.S. government's official web portal to all federal, state and local government web resources and services.